« 国外逃亡・・・グアム3日目 | トップページ | 新撰組と成田空港と流星群 »

2009年11月15日 (日)

国外逃亡・・・グアム4日目

11月15日

PGUM 142254Z 05015KT 10SM FEW025 29/23 A2986 RMK AO2 SLP104 T02890228
PGUM 150154Z 06016G22KT 10SM SCT031 31/22 A2983 RMK AO2 SLP094 T03110217
PGUM 150454Z 06014KT 10SM CLR 32/22 A2980 RMK AO2 SLP083 T03170217
RJAA 151000Z 24009KT 9999 FEW030 16/07 Q1011 BECMG 25006KT

今日で最終日です(タブパパのみ明日の早朝便で関空へ帰ります)
せっかくなのでホテルのチェックアウト後、ビーチを散歩して「目の保養」をします。

Dscn0702s
ホテルの部屋・・・・独りだと寂しい

Dscn0705s
部屋の窓からはビーチが一望でします

Dscn0708s
う~ん、癒されます

Photo_14
どこかで見た猫が望遠レンズで何を撮っているんでしょうか?

Dscn0712s
絵葉書みたいでしょ?

Dscn0717s
もっと、ここに居たいなぁ!

Dscn0720s
タブパパは何で頭を掻いているのでしょうか?




-----------------------------------------------------------------------------

Dscn0725s
ホテルの近くににある日本人が経営するコンビニの看板猫

Dscn0726s_2
トレンドベクターアビエーションにて・・・

Dscn0728s
トレンドベクターアビエーションのある格納庫。昔は対潜哨戒機P3が格納されていたとか・・・

Dscn0729s
いい雲だなぁ~グライダーしたい!

Dscn0730s
最後の観光は海中展望台?

Dscn0731s
フィッシュアイ・・・レンズぢゃないよ!

Dscn0732s
魚が一杯です

Dscn0740s
餌付けされています

Dscn0733s
こちらはディズニー映画で有名になったカクレクマノミ

Dscn0744s
海上から海中を見ると魚の群れがグルグル・・・

Dscn0745s
この深みは爆弾で出来たとか・・・・

Dscn0747s
日本人ツアー客がシュノーケリングをしていますが・・・・



Dscn0751s
タブパパはまたしても望遠レンズで・・・・・

Dscn0752s
レンタカーに給油して・・・・

Dscn0753s
あっと、言う間に機上の人になります。

Dscn0760s
硫黄島上空?

Dscn0763s
八丈島上空

Dscn0761s
復路の機内食は暖かくて美味しかったです!






|

« 国外逃亡・・・グアム3日目 | トップページ | 新撰組と成田空港と流星群 »

グアム合宿」カテゴリの記事